Latest Weather Observations for Kingaroy

IDQ60901

Issued at 3:11 pm EST Thursday 2 July 2015 (issued every 10 minutes, with the page automatically refreshed every 10 minutes)

About weather observations | Map of Brisbane area stations | Latest observations for Brisbane area | Other Formats
Station Details ID: 040922 Name: KINGAROY AIRPORT Lat: -26.57 Lon: 151.84 Height: 433.67 m
Data from the previous 72 hours. | See also: Recent months at Kingaroy
Date/Time
EST
Tmp

°C
App
Tmp
°C
Dew
Point
°C
Rel
Hum
%
Delta-T

°C
Wind Press
QNH
hPa
Press
MSL
hPa
Rain
since
9 am
mm
Dir
 
Spd
km/h
Gust
km/h
Spd
kts
Gust
kts
02/03:00pm 16.2 9.6 2.2 39 6.4 SW 26 35 14 19 1020.2 1020.2 0.0
02/02:30pm 16.7 11.3 4.7 45 5.8 W 22 30 12 16 1020.2 1020.2 0.0
02/02:00pm 16.0 11.1 4.1 45 5.6 WSW 19 26 10 14 1020.1 1020.0 0.0
02/01:30pm 16.3 11.5 4.7 46 5.6 SW 19 30 10 16 1020.6 1020.6 0.0
02/01:00pm 14.9 10.5 4.6 50 4.9 SW 17 28 9 15 1021.3 1021.2 0.0
02/12:30pm 15.6 11.5 4.6 48 5.3 WSW 15 28 8 15 1021.4 1021.3 0.0
02/12:00pm 14.7 10.3 5.0 52 4.6 WSW 17 24 9 13 1022.0 1021.9 0.0
02/11:30am 15.3 11.2 6.1 54 4.5 WSW 17 24 9 13 1022.4 1022.4 0.0
02/11:00am 14.5 10.5 6.6 59 3.9 SW 17 26 9 14 1023.2 1023.2 0.0
02/10:30am 14.3 8.9 6.2 58 4.0 SW 24 30 13 16 1024.2 1024.2 0.0
02/10:00am 13.6 8.5 6.2 61 3.6 SSW 22 32 12 17 1024.2 1024.2 0.0
02/09:30am 12.5 8.1 6.5 67 2.9 SW 19 24 10 13 1024.4 1024.4 0.0
02/09:00am 10.1 7.8 9.0 93 0.6 W 11 20 6 11 1024.5 1024.5 0.0
02/08:30am 6.6 5.4 6.5 99 0.0 W 2 7 1 4 1023.9 1023.8 0.0
02/08:00am 3.6 2.2 3.5 99 0.0 CALM 0 0 0 0 1023.8 1023.7 0.0
02/07:30am 1.9 0.2 1.8 99 0.0 CALM 0 0 0 0 1023.5 1023.5 0.0
02/07:00am 1.0 -0.9 0.7 98 0.1 CALM 0 0 0 0 1023.1 1023.1 0.0
02/06:30am 0.8 -1.9 0.5 98 0.1 WNW 4 7 2 4 1022.6 1022.6 0.0
02/06:00am 1.0 -0.9 0.7 98 0.1 CALM 0 0 0 0 1022.3 1022.3 0.0
02/05:30am 1.9 0.2 1.6 98 0.1 CALM 0 0 0 0 1022.2 1022.2 0.0
02/05:00am 2.1 -0.7 1.8 98 0.1 W 6 7 3 4 1022.4 1022.4 0.0
02/04:30am 2.2 0.5 1.9 98 0.1 CALM 0 6 0 3 1022.3 1022.3 0.0
02/04:00am 2.5 0.8 2.1 97 0.2 CALM 0 0 0 0 1022.2 1022.2 0.0
02/03:30am 2.5 0.8 1.8 95 0.3 CALM 0 0 0 0 1022.4 1022.4 0.0
02/03:00am 3.6 1.7 3.0 96 0.2 W 2 6 1 3 1022.9 1022.9 0.0
02/02:30am 4.9 3.0 4.8 99 0.0 SSE 4 7 2 4 1022.6 1022.6 0.0
02/02:00am 4.7 3.1 4.4 98 0.1 SE 2 6 1 3 1023.0 1023.0 0.0
02/01:30am 4.6 2.9 4.2 97 0.2 E 2 7 1 4 1023.1 1023.1 0.0
02/01:00am 5.1 3.2 4.8 98 0.1 SSE 4 7 2 4 1023.4 1023.4 0.0
02/12:30am 4.6 2.2 4.2 97 0.2 SSW 6 6 3 3 1023.5 1023.5 0.0
02/12:00am 4.7 2.1 4.0 95 0.3 SSW 7 9 4 5 1023.7 1023.6 0.0
 
Date/Time
EST
Tmp

°C
App
Tmp
°C
Dew
Point
°C
Rel
Hum
%
Delta-T

°C
Wind Press
QNH
hPa
Press
MSL
hPa
Rain
since
9 am
mm
Dir
 
Spd
km/h
Gust
km/h
Spd
kts
Gust
kts
01/11:30pm 5.2 2.3 4.5 95 0.3 S 9 11 5 6 1023.9 1023.8 0.0
01/11:00pm 5.0 3.6 3.5 90 0.6 CALM 0 0 0 0 1024.1 1024.0 0.0
01/10:30pm 6.1 3.8 4.7 91 0.6 E 6 9 3 5 1024.2 1024.2 0.0
01/10:00pm 7.1 6.2 6.0 93 0.5 CALM 0 0 0 0 1024.3 1024.3 0.0
01/09:00pm 8.4 7.6 6.7 89 0.8 CALM 0 0 0 0 1024.5 1024.5 0.0
01/08:30pm 8.7 7.9 6.7 87 1.0 CALM 0 0 0 0 1024.4 1024.4 0.0
01/08:00pm 10.2 9.9 8.8 91 0.7 CALM 0 0 0 0 1024.3 1024.3 0.0
01/07:30pm 11.0 9.5 9.3 89 0.9 SSW 7 9 4 5 1024.2 1024.2 0.0
01/07:00pm 10.6 8.1 8.2 85 1.2 SSW 11 13 6 7 1023.8 1023.7 0.0
01/06:30pm 11.5 9.0 8.4 81 1.6 SSW 11 11 6 6 1023.7 1023.6 0.0
01/06:00pm 13.8 11.6 8.0 68 2.9 S 9 11 5 6 1023.2 1023.2 0.0
01/05:30pm 15.5 13.1 8.5 63 3.6 SW 11 13 6 7 1022.9 1022.9 0.0
01/05:00pm 17.1 14.3 8.5 57 4.5 WSW 13 19 7 10 1022.7 1022.7 0.0
01/04:30pm 18.5 15.3 8.5 52 5.3 SSW 15 20 8 11 1022.5 1022.5 0.0
01/04:00pm 19.2 14.3 8.5 50 5.7 SSW 24 28 13 15 1022.4 1022.4 0.0
01/03:30pm 19.8 15.7 8.8 49 5.9 SSW 20 30 11 16 1022.2 1022.2 0.0
01/03:00pm 20.2 16.2 9.2 49 5.9 SW 20 26 11 14 1022.3 1022.3 0.0
01/02:30pm 19.9 16.2 9.5 51 5.6 WSW 19 32 10 17 1022.3 1022.3 0.0
01/02:00pm 20.3 16.4 9.5 50 5.9 WSW 20 30 11 16 1022.5 1022.5 0.0
01/01:30pm 20.1 16.3 9.7 51 5.7 SW 20 30 11 16 1022.8 1022.8 0.0
01/01:00pm 20.2 16.4 9.7 51 5.7 SW 20 28 11 15 1023.0 1023.0 0.0
01/12:30pm 20.3 17.1 9.8 51 5.7 WSW 17 30 9 16 1023.3 1023.3 0.0
01/12:00pm 20.3 16.9 9.2 49 6.0 WSW 17 26 9 14 1023.9 1023.8 0.0
01/11:30am 20.4 17.5 9.6 50 5.9 W 15 20 8 11 1024.3 1024.3 0.0
01/11:00am 19.7 17.9 10.9 57 4.9 SW 11 19 6 10 1024.7 1024.7 0.0
01/10:30am 19.2 17.4 11.0 59 4.6 SSW 11 17 6 9 1025.2 1025.2 0.0
01/10:00am 17.7 17.2 12.2 70 3.1 W 6 7 3 4 1025.4 1025.4 0.0
01/09:30am 16.4 16.6 11.8 74 2.6 W 2 7 1 4 1025.6 1025.4 0.0
01/09:00am 14.6 14.5 12.1 85 1.4 W 4 7 2 4 1025.7 1025.5 0.2
01/08:30am 12.3 12.8 11.5 95 0.4 CALM 0 0 0 0 1025.4 1025.2 0.2
01/08:00am 10.3 10.4 10.1 99 0.1 CALM 0 0 0 0 1025.2 1025.0 0.2
01/07:30am 7.9 7.3 7.6 98 0.1 CALM 0 0 0 0 1025.1 1024.9 0.2
01/07:00am 7.4 6.7 7.0 97 0.2 CALM 0 0 0 0 1024.9 1024.6 0.2
01/06:30am 8.1 6.5 7.8 98 0.1 ESE 6 7 3 4 1024.4 1024.1 0.2
01/06:00am 7.9 6.2 7.5 97 0.2 S 6 7 3 4 1024.3 1024.0 0.2
01/05:30am 8.7 8.3 8.4 98 0.1 CALM 0 0 0 0 1024.2 1023.9 0.2
01/05:00am 8.3 7.4 7.9 97 0.2 SE 2 9 1 5 1024.2 1023.9 0.2
01/04:30am 7.7 7.0 7.0 95 0.3 CALM 0 6 0 3 1024.3 1024.0 0.2
01/04:00am 8.8 7.2 8.2 96 0.3 ESE 6 7 3 4 1024.4 1024.1 0.2
01/03:30am 9.3 7.9 8.7 96 0.3 SSW 6 7 3 4 1024.6 1024.3 0.2
01/03:00am 9.7 8.4 9.2 97 0.3 S 6 9 3 5 1024.6 1024.3 0.2
01/02:30am 10.6 10.6 9.7 94 0.5 CALM 0 0 0 0 1024.4 1024.1 0.2
01/02:00am 11.3 11.1 10.4 94 0.5 ESE 2 7 1 4 1024.8 1024.5 0.2
01/01:30am 11.7 12.0 10.8 94 0.5 CALM 0 7 0 4 1025.0 1024.8 0.2
01/01:00am 12.0 11.5 10.9 93 0.6 NW 4 6 2 3 1025.4 1025.2 0.2
01/12:30am 12.3 11.4 11.5 95 0.4 SSE 7 11 4 6 1025.6 1025.4 0.2
01/12:00am 11.7 10.8 10.6 93 0.6 SSW 6 11 3 6 1025.8 1025.6 0.2
 
Date/Time
EST
Tmp

°C
App
Tmp
°C
Dew
Point
°C
Rel
Hum
%
Delta-T

°C
Wind Press
QNH
hPa
Press
MSL
hPa
Rain
since
9 am
mm
Dir
 
Spd
km/h
Gust
km/h
Spd
kts
Gust
kts
30/11:30pm 12.7 13.1 11.1 90 0.9 CALM 0 0 0 0 1025.8 1025.6 0.2
30/11:00pm 12.9 13.3 11.1 89 1.0 CALM 0 0 0 0 1025.9 1025.7 0.2
30/10:30pm 12.8 13.1 10.9 88 1.0 CALM 0 0 0 0 1026.3 1026.0 0.2
30/10:00pm 13.1 13.5 11.3 89 1.0 CALM 0 0 0 0 1026.4 1026.1 0.2
30/09:30pm 13.2 13.6 11.1 87 1.1 CALM 0 0 0 0 1026.3 1026.0 0.2
30/09:00pm 13.5 12.9 11.6 88 1.0 SSW 6 7 3 4 1026.6 1026.3 0.2
30/08:30pm 14.2 14.7 11.7 85 1.4 CALM 0 0 0 0 1026.3 1026.0 0.2
30/08:00pm 14.4 14.9 11.6 83 1.5 CALM 0 0 0 0 1026.1 1025.8 0.2
30/07:30pm 14.7 14.1 11.7 82 1.6 SSW 6 7 3 4 1025.9 1025.7 0.2
30/07:00pm 15.0 14.2 11.6 80 1.9 ESE 7 7 4 4 1025.6 1025.4 0.2
30/06:30pm 15.4 14.6 11.8 79 2.0 E 7 7 4 4 1025.4 1025.2 0.2
30/06:00pm 16.2 15.5 12.0 76 2.3 E 7 11 4 6 1025.1 1024.9 0.2
30/05:30pm 17.0 15.9 12.1 73 2.7 ESE 9 11 5 6 1024.9 1024.6 0.2
30/05:00pm 18.0 17.0 12.2 69 3.3 ESE 9 13 5 7 1024.8 1024.5 0.2
30/04:30pm 18.8 17.0 12.1 65 3.8 ESE 13 19 7 10 1024.6 1024.3 0.2
30/04:00pm 20.1 18.9 9.7 51 5.6 ENE 6 9 3 5 1024.6 1024.3 0.2
30/03:30pm 20.1 18.7 9.4 50 5.8 ENE 7 9 4 5 1024.5 1024.2 0.2
30/03:00pm 20.4 18.6 9.3 49 6.0 ENE 9 15 5 8 1024.4 1024.1 0.2
30/02:30pm 21.5 20.2 10.0 48 6.4 ENE 7 11 4 6 1024.5 1024.2 0.2
30/02:00pm 20.4 17.5 8.1 45 6.5 ENE 13 19 7 10 1024.7 1024.4 0.2
30/01:30pm 21.1 19.3 10.9 52 5.7 NE 11 17 6 9 1024.7 1024.4 0.2
30/01:00pm 20.5 18.5 10.0 51 5.7 E 11 17 6 9 1025.1 1024.9 0.2
30/12:30pm 20.4 18.1 10.5 53 5.5 ESE 13 20 7 11 1025.4 1025.2 0.2
30/12:00pm 19.7 17.1 10.7 56 5.0 E 15 20 8 11 1026.4 1026.1 0.0
30/11:30am 19.1 16.6 10.9 59 4.5 E 15 20 8 11 1027.2 1027.0 0.0
30/11:00am 18.9 16.4 11.0 60 4.4 ESE 15 24 8 13 1027.4 1027.2 0.0
30/10:30am 18.0 15.7 11.8 67 3.5 ESE 15 24 8 13 1027.7 1027.5 0.0
30/10:00am 17.4 14.9 12.3 72 2.9 ESE 17 26 9 14 1027.7 1027.5 0.0
30/09:30am 16.5 14.2 13.0 80 2.0 ESE 17 26 9 14 1028.2 1028.0 0.0
30/09:00am 15.5 13.5 12.8 84 1.5 ESE 15 20 8 11 1028.6 1028.3 0.8
30/08:30am 14.6 13.2 12.1 85 1.4 SE 11 15 6 8 1028.6 1028.3 0.8
30/08:00am 13.9 13.4 12.6 92 0.7 SE 7 13 4 7 1028.4 1028.2 0.8
30/07:30am 12.6 11.9 12.1 97 0.3 SSE 7 11 4 6 1028.6 1028.3 0.8
30/07:00am 12.3 11.1 11.7 96 0.3 SSW 9 11 5 6 1028.2 1028.0 0.8
30/06:30am 12.9 11.8 12.1 95 0.4 S 9 11 5 6 1027.9 1027.7 0.8
30/06:00am 13.2 12.6 12.4 95 0.4 SE 7 13 4 7 1027.8 1027.6 0.8
30/05:30am 13.4 12.0 12.3 93 0.6 SE 11 15 6 8 1027.6 1027.4 0.8
30/05:00am 13.4 12.0 12.3 93 0.6 SE 11 20 6 11 1027.6 1027.4 0.8
30/04:30am 13.4 12.5 12.5 94 0.5 SE 9 15 5 8 1027.5 1027.3 0.8
30/04:00am 13.4 12.5 12.6 95 0.4 ESE 9 15 5 8 1027.4 1027.2 0.8
30/03:30am 13.4 12.1 12.6 95 0.4 SE 11 17 6 9 1027.6 1027.4 0.8
30/03:00am 13.4 12.2 12.8 96 0.3 ESE 11 17 6 9 1027.9 1027.7 0.8
30/02:30am 13.4 12.6 12.8 96 0.3 SE 9 13 5 7 1028.1 1027.9 0.8
30/02:00am 13.5 12.7 12.9 96 0.3 SE 9 11 5 6 1028.4 1028.2 0.8
30/01:30am 13.5 12.6 12.7 95 0.4 SSE 9 11 5 6 1028.8 1028.5 0.8
30/01:00am 13.6 12.8 12.8 95 0.4 SSE 9 11 5 6 1028.8 1028.5 0.8
30/12:30am 13.6 12.7 12.7 94 0.5 SE 9 11 5 6 1028.8 1028.5 0.8
30/12:00am 13.8 13.0 12.9 94 0.5 SE 9 15 5 8 1028.9 1028.6 0.8
 
Date/Time
EST
Tmp

°C
App
Tmp
°C
Dew
Point
°C
Rel
Hum
%
Delta-T

°C
Wind Press
QNH
hPa
Press
MSL
hPa
Rain
since
9 am
mm
Dir
 
Spd
km/h
Gust
km/h
Spd
kts
Gust
kts
29/11:30pm 13.8 12.6 12.9 94 0.5 SSE 11 17 6 9 1029.1 1028.9 0.8
29/11:00pm 13.7 12.9 12.8 94 0.5 ESE 9 13 5 7 1029.3 1029.1 0.8
29/10:30pm 13.4 12.5 12.5 94 0.5 ESE 9 13 5 7 1029.4 1029.2 0.8
29/10:00pm 13.7 12.9 12.8 94 0.5 ESE 9 13 5 7 1029.4 1029.2 0.8
29/09:30pm 13.8 12.9 12.7 93 0.6 ESE 9 13 5 7 1029.5 1029.3 0.8
29/09:00pm 13.8 13.0 12.9 94 0.5 ESE 9 13 5 7 1029.6 1029.4 0.8
29/08:30pm 13.8 13.0 12.9 94 0.5 ESE 9 13 5 7 1029.5 1029.3 0.8
29/08:00pm 14.0 13.3 13.1 94 0.5 ESE 9 15 5 8 1029.4 1029.2 0.8
29/07:30pm 14.1 13.3 13.0 93 0.6 SE 9 13 5 7 1029.2 1029.0 0.8
29/07:00pm 14.1 12.6 13.1 94 0.6 ESE 13 17 7 9 1029.1 1028.9 0.6
29/06:30pm 14.4 12.9 13.0 91 0.8 ESE 13 17 7 9 1029.0 1028.8 0.6
29/06:00pm 14.6 13.9 13.1 91 0.8 ESE 9 15 5 8 1028.6 1028.3 0.6
29/05:30pm 14.8 14.5 12.8 88 1.1 E 6 11 3 6 1028.0 1027.8 0.6
29/05:00pm 15.2 13.4 13.2 88 1.1 E 15 20 8 11 1027.4 1027.2 0.6
29/04:30pm 15.6 14.8 14.1 91 0.9 ESE 11 15 6 8 1027.2 1027.0 0.6
29/04:00pm 18.1 17.2 13.8 76 2.5 E 11 17 6 9 1027.0 1026.8 0.2
29/03:30pm 17.3 16.4 13.6 79 2.1 E 11 17 6 9 1027.0 1026.8 0.2

Latest Capital City Observations: Canberra | Sydney | Melbourne | Brisbane | Adelaide | Perth | Hobart | Darwin

Other Formats:

Comma delimited format used in spreadsheet applications
http://www.bom.gov.au/fwo/IDQ60901/IDQ60901.94549.axf

JavaScript Object Notation format (JSON) in row-major order
http://www.bom.gov.au/fwo/IDQ60901/IDQ60901.94549.json